sensor_id;sensor_type;location;lat;lon;timestamp;pressure;altitude;pressure_sealevel;temperature;humidity
23059;BME280;30585;51.502;7.218;2022-12-18T00:00:51;92543.41;;;-147.26;91.35
23059;BME280;30585;51.502;7.218;2022-12-18T00:03:19;92529.16;;;-147.26;91.32
23059;BME280;30585;51.502;7.218;2022-12-18T00:05:47;92506.72;;;-147.26;91.17
23059;BME280;30585;51.502;7.218;2022-12-18T00:08:16;92523.03;;;-147.26;91.36
23059;BME280;30585;51.502;7.218;2022-12-18T00:10:44;92535.25;;;-147.26;90.93
23059;BME280;30585;51.502;7.218;2022-12-18T00:13:12;92286.66;;;-147.26;90.64
23059;BME280;30585;51.502;7.218;2022-12-18T00:15:41;92547.47;;;-147.26;90.57
23059;BME280;30585;51.502;7.218;2022-12-18T00:18:09;92523.03;;;-147.26;90.48
23059;BME280;30585;51.502;7.218;2022-12-18T00:20:41;92553.59;;;-147.26;90.13
23059;BME280;30585;51.502;7.218;2022-12-18T00:23:09;92512.84;;;-147.26;90.29
23059;BME280;30585;51.502;7.218;2022-12-18T00:25:36;92465.97;;;-147.26;90.07
23059;BME280;30585;51.502;7.218;2022-12-18T00:28:04;92449.69;;;-147.26;90.20
23059;BME280;30585;51.502;7.218;2022-12-18T00:30:32;92531.19;;;-147.26;89.73
23059;BME280;30585;51.502;7.218;2022-12-18T00:33:01;92535.25;;;-147.26;89.73
23059;BME280;30585;51.502;7.218;2022-12-18T00:35:28;92518.94;;;-147.26;89.58
23059;BME280;30585;51.502;7.218;2022-12-18T00:37:56;92508.75;;;-147.26;89.32
23059;BME280;30585;51.502;7.218;2022-12-18T00:40:23;92510.81;;;-147.26;89.42
23059;BME280;30585;51.502;7.218;2022-12-18T00:42:51;92531.19;;;-147.26;89.39
23059;BME280;30585;51.502;7.218;2022-12-18T00:45:25;92541.38;;;-147.26;89.25
23059;BME280;30585;51.502;7.218;2022-12-18T00:47:53;92508.75;;;-147.26;89.54
23059;BME280;30585;51.502;7.218;2022-12-18T00:50:23;92559.72;;;-147.26;89.63
23059;BME280;30585;51.502;7.218;2022-12-18T00:52:52;92482.28;;;-147.26;89.84
23059;BME280;30585;51.502;7.218;2022-12-18T00:55:19;92514.88;;;-147.26;89.83
23059;BME280;30585;51.502;7.218;2022-12-18T00:57:47;92508.75;;;-147.26;89.46
23059;BME280;30585;51.502;7.218;2022-12-18T01:00:15;92527.09;;;-147.26;89.30
23059;BME280;30585;51.502;7.218;2022-12-18T01:02:43;92531.19;;;-147.26;89.68
23059;BME280;30585;51.502;7.218;2022-12-18T01:05:12;92474.13;;;-147.26;89.64
23059;BME280;30585;51.502;7.218;2022-12-18T01:07:41;92461.91;;;-147.26;89.68
23059;BME280;30585;51.502;7.218;2022-12-18T01:10:10;92490.44;;;-147.26;89.84
23059;BME280;30585;51.502;7.218;2022-12-18T01:12:39;92506.72;;;-147.26;89.95
23059;BME280;30585;51.502;7.218;2022-12-18T01:15:07;92480.25;;;-147.26;90.36
23059;BME280;30585;51.502;7.218;2022-12-18T01:17:35;92518.94;;;-147.26;89.78
23059;BME280;30585;51.502;7.218;2022-12-18T01:20:04;92551.56;;;-147.26;89.92
23059;BME280;30585;51.502;7.218;2022-12-18T01:22:35;92482.28;;;-147.26;90.24
23059;BME280;30585;51.502;7.218;2022-12-18T01:25:05;92523.03;;;-147.26;89.71
23059;BME280;30585;51.502;7.218;2022-12-18T01:27:33;92547.47;;;-147.26;89.65
23059;BME280;30585;51.502;7.218;2022-12-18T01:30:01;92539.34;;;-147.26;89.81
23059;BME280;30585;51.502;7.218;2022-12-18T01:32:29;92521.00;;;-147.26;89.88
23059;BME280;30585;51.502;7.218;2022-12-18T01:34:57;92518.94;;;-147.26;89.70
23059;BME280;30585;51.502;7.218;2022-12-18T01:37:25;92539.34;;;-147.26;89.99
23059;BME280;30585;51.502;7.218;2022-12-18T01:39:53;92523.03;;;-147.26;89.83
23059;BME280;30585;51.502;7.218;2022-12-18T01:42:23;92461.91;;;-147.26;90.08
23059;BME280;30585;51.502;7.218;2022-12-18T01:44:55;92521.00;;;-147.26;90.37
23059;BME280;30585;51.502;7.218;2022-12-18T01:47:26;92502.66;;;-147.26;90.35
23059;BME280;30585;51.502;7.218;2022-12-18T01:49:55;92529.16;;;-147.26;90.91
23059;BME280;30585;51.502;7.218;2022-12-18T01:52:25;92541.38;;;-147.26;90.76
23059;BME280;30585;51.502;7.218;2022-12-18T01:54:54;92498.56;;;-147.26;90.47
23059;BME280;30585;51.502;7.218;2022-12-18T01:57:24;92508.75;;;-147.26;90.47
23059;BME280;30585;51.502;7.218;2022-12-18T01:59:54;92521.00;;;-147.26;90.57
23059;BME280;30585;51.502;7.218;2022-12-18T02:02:23;92523.03;;;-147.26;90.96
23059;BME280;30585;51.502;7.218;2022-12-18T02:04:50;92533.22;;;-147.26;90.73
23059;BME280;30585;51.502;7.218;2022-12-18T02:07:23;92510.81;;;-147.26;90.48
23059;BME280;30585;51.502;7.218;2022-12-18T02:09:58;92518.94;;;-147.26;91.50
23059;BME280;30585;51.502;7.218;2022-12-18T02:12:31;92474.13;;;-147.26;91.28
23059;BME280;30585;51.502;7.218;2022-12-18T02:15:09;92531.19;;;-147.26;91.41
23059;BME280;30585;51.502;7.218;2022-12-18T02:17:42;92553.59;;;-147.26;91.83
23059;BME280;30585;51.502;7.218;2022-12-18T02:20:16;92525.06;;;-147.26;92.08
23059;BME280;30585;51.502;7.218;2022-12-18T02:22:53;92541.38;;;-147.26;91.77
23059;BME280;30585;51.502;7.218;2022-12-18T02:25:39;92498.56;;;-147.26;91.96
23059;BME280;30585;51.502;7.218;2022-12-18T02:28:11;92578.03;;;-147.26;91.99
23059;BME280;30585;51.502;7.218;2022-12-18T02:30:41;92470.06;;;-147.26;91.84
23059;BME280;30585;51.502;7.218;2022-12-18T02:33:11;92553.59;;;-147.26;92.04
23059;BME280;30585;51.502;7.218;2022-12-18T02:35:40;92490.44;;;-147.26;92.11
23059;BME280;30585;51.502;7.218;2022-12-18T02:38:09;92498.56;;;-147.26;91.62
23059;BME280;30585;51.502;7.218;2022-12-18T02:40:39;92482.28;;;-147.26;91.79
23059;BME280;30585;51.502;7.218;2022-12-18T02:43:10;92545.44;;;-147.26;91.48
23059;BME280;30585;51.502;7.218;2022-12-18T02:45:47;92512.84;;;-147.26;91.50
23059;BME280;30585;51.502;7.218;2022-12-18T02:48:16;92531.19;;;-147.26;91.66
23059;BME280;30585;51.502;7.218;2022-12-18T02:50:49;92478.19;;;-147.26;92.33
23059;BME280;30585;51.502;7.218;2022-12-18T02:53:24;92516.91;;;-147.26;92.64
23059;BME280;30585;51.502;7.218;2022-12-18T02:55:59;92510.81;;;-147.26;93.52
23059;BME280;30585;51.502;7.218;2022-12-18T02:58:37;92559.72;;;-147.26;94.11
23059;BME280;30585;51.502;7.218;2022-12-18T03:01:15;92551.56;;;-147.26;94.48
23059;BME280;30585;51.502;7.218;2022-12-18T03:03:47;92498.56;;;-147.26;95.22
23059;BME280;30585;51.502;7.218;2022-12-18T03:06:21;92563.78;;;-147.26;94.81
23059;BME280;30585;51.502;7.218;2022-12-18T03:08:54;92496.53;;;-147.26;94.76
23059;BME280;30585;51.502;7.218;2022-12-18T03:11:25;92514.88;;;-147.26;95.14
23059;BME280;30585;51.502;7.218;2022-12-18T03:14:12;92394.66;;;-147.26;95.03
23059;BME280;30585;51.502;7.218;2022-12-18T03:16:43;92498.56;;;-147.26;94.52
23059;BME280;30585;51.502;7.218;2022-12-18T03:19:15;92510.81;;;-147.26;94.74
23059;BME280;30585;51.502;7.218;2022-12-18T03:21:45;92514.88;;;-147.26;94.48
23059;BME280;30585;51.502;7.218;2022-12-18T03:24:15;92498.56;;;-147.26;94.43
23059;BME280;30585;51.502;7.218;2022-12-18T03:26:47;92518.94;;;-147.26;94.40
23059;BME280;30585;51.502;7.218;2022-12-18T03:29:22;92531.19;;;-147.26;94.61
23059;BME280;30585;51.502;7.218;2022-12-18T03:31:56;92523.03;;;-147.26;94.66
23059;BME280;30585;51.502;7.218;2022-12-18T03:34:30;92502.66;;;-147.26;94.94
23059;BME280;30585;51.502;7.218;2022-12-18T03:37:02;92525.06;;;-147.26;94.48
23059;BME280;30585;51.502;7.218;2022-12-18T03:39:30;92535.25;;;-147.26;93.80
23059;BME280;30585;51.502;7.218;2022-12-18T03:42:05;92311.13;;;-147.26;93.67
23059;BME280;30585;51.502;7.218;2022-12-18T03:44:39;92512.84;;;-147.26;93.47
23059;BME280;30585;51.502;7.218;2022-12-18T03:47:13;92541.38;;;-147.26;93.76
23059;BME280;30585;51.502;7.218;2022-12-18T03:49:48;92555.63;;;-147.26;93.58
23059;BME280;30585;51.502;7.218;2022-12-18T03:52:20;92527.09;;;-147.26;93.62
23059;BME280;30585;51.502;7.218;2022-12-18T03:54:52;92514.88;;;-147.26;93.31
23059;BME280;30585;51.502;7.218;2022-12-18T03:57:23;92472.09;;;-147.26;93.61
23059;BME280;30585;51.502;7.218;2022-12-18T03:59:57;92551.56;;;-147.26;93.59
23059;BME280;30585;51.502;7.218;2022-12-18T04:02:27;92561.75;;;-147.26;93.30
23059;BME280;30585;51.502;7.218;2022-12-18T04:04:59;92539.34;;;-147.26;93.71
23059;BME280;30585;51.502;7.218;2022-12-18T04:07:28;92506.72;;;-147.26;93.54
23059;BME280;30585;51.502;7.218;2022-12-18T04:09:58;92518.94;;;-147.26;93.66
23059;BME280;30585;51.502;7.218;2022-12-18T04:12:29;92518.94;;;-147.26;93.61
23059;BME280;30585;51.502;7.218;2022-12-18T04:14:58;92545.44;;;-147.26;93.32
23059;BME280;30585;51.502;7.218;2022-12-18T04:17:26;92510.81;;;-147.26;93.59
23059;BME280;30585;51.502;7.218;2022-12-18T04:19:53;92547.47;;;-147.26;93.38
23059;BME280;30585;51.502;7.218;2022-12-18T04:22:21;92531.19;;;-147.26;93.03
23059;BME280;30585;51.502;7.218;2022-12-18T04:24:49;92525.06;;;-147.26;92.85
23059;BME280;30585;51.502;7.218;2022-12-18T04:27:16;92451.72;;;-147.26;92.61
23059;BME280;30585;51.502;7.218;2022-12-18T04:29:44;92539.34;;;-147.26;92.88
23059;BME280;30585;51.502;7.218;2022-12-18T04:32:13;92531.19;;;-147.26;92.25
23059;BME280;30585;51.502;7.218;2022-12-18T04:34:41;92502.66;;;-147.26;92.01
23059;BME280;30585;51.502;7.218;2022-12-18T04:37:08;92539.34;;;-147.26;91.36
23059;BME280;30585;51.502;7.218;2022-12-18T04:39:36;92476.16;;;-147.26;90.93
23059;BME280;30585;51.502;7.218;2022-12-18T04:42:04;92537.28;;;-147.26;90.50
23059;BME280;30585;51.502;7.218;2022-12-18T04:44:32;92523.03;;;-147.26;90.77
23059;BME280;30585;51.502;7.218;2022-12-18T04:46:59;92457.81;;;-147.26;90.16
23059;BME280;30585;51.502;7.218;2022-12-18T04:49:28;92492.47;;;-147.26;90.41
23059;BME280;30585;51.502;7.218;2022-12-18T04:51:56;92545.44;;;-147.26;90.56
23059;BME280;30585;51.502;7.218;2022-12-18T04:54:23;92543.41;;;-147.26;90.69
23059;BME280;30585;51.502;7.218;2022-12-18T04:56:51;92525.06;;;-147.26;91.02
23059;BME280;30585;51.502;7.218;2022-12-18T04:59:20;92478.19;;;-147.26;91.45
23059;BME280;30585;51.502;7.218;2022-12-18T05:01:48;92531.19;;;-147.26;91.17
23059;BME280;30585;51.502;7.218;2022-12-18T05:04:16;92549.53;;;-147.26;91.51
23059;BME280;30585;51.502;7.218;2022-12-18T05:06:46;92545.44;;;-147.26;91.71
23059;BME280;30585;51.502;7.218;2022-12-18T05:09:14;92527.09;;;-147.26;91.34
23059;BME280;30585;51.502;7.218;2022-12-18T05:11:42;92498.56;;;-147.26;91.23
23059;BME280;30585;51.502;7.218;2022-12-18T05:14:11;92510.81;;;-147.26;91.09
23059;BME280;30585;51.502;7.218;2022-12-18T05:16:39;92549.53;;;-147.26;90.85
23059;BME280;30585;51.502;7.218;2022-12-18T05:19:07;92541.38;;;-147.26;91.15
23059;BME280;30585;51.502;7.218;2022-12-18T05:21:34;92502.66;;;-147.26;91.13
23059;BME280;30585;51.502;7.218;2022-12-18T05:24:04;92525.06;;;-147.26;90.90
23059;BME280;30585;51.502;7.218;2022-12-18T05:26:32;92514.88;;;-147.26;91.31
23059;BME280;30585;51.502;7.218;2022-12-18T05:29:00;92498.56;;;-147.26;91.12
23059;BME280;30585;51.502;7.218;2022-12-18T05:31:27;92490.44;;;-147.26;91.32
23059;BME280;30585;51.502;7.218;2022-12-18T05:34:01;92533.22;;;-147.26;90.96
23059;BME280;30585;51.502;7.218;2022-12-18T05:36:29;92506.72;;;-147.26;91.27
23059;BME280;30585;51.502;7.218;2022-12-18T05:38:56;92512.84;;;-147.26;90.93
23059;BME280;30585;51.502;7.218;2022-12-18T05:41:25;92506.72;;;-147.26;90.71
23059;BME280;30585;51.502;7.218;2022-12-18T05:43:53;92559.72;;;-147.26;90.60
23059;BME280;30585;51.502;7.218;2022-12-18T05:46:21;92531.19;;;-147.26;90.69
23059;BME280;30585;51.502;7.218;2022-12-18T05:48:48;92506.72;;;-147.26;90.35
23059;BME280;30585;51.502;7.218;2022-12-18T05:51:19;92529.16;;;-147.26;90.40
23059;BME280;30585;51.502;7.218;2022-12-18T05:53:47;92535.25;;;-147.26;90.54
23059;BME280;30585;51.502;7.218;2022-12-18T05:56:17;92527.09;;;-147.26;89.95
23059;BME280;30585;51.502;7.218;2022-12-18T05:58:47;92535.25;;;-147.26;90.09
23059;BME280;30585;51.502;7.218;2022-12-18T06:01:17;92492.47;;;-147.26;90.15
23059;BME280;30585;51.502;7.218;2022-12-18T06:03:45;92484.31;;;-147.26;89.80
23059;BME280;30585;51.502;7.218;2022-12-18T06:06:14;92523.03;;;-147.26;89.88
23059;BME280;30585;51.502;7.218;2022-12-18T06:08:42;92525.06;;;-147.26;89.55
23059;BME280;30585;51.502;7.218;2022-12-18T06:11:12;92502.66;;;-147.26;89.19
23059;BME280;30585;51.502;7.218;2022-12-18T06:13:40;92571.94;;;-147.26;89.16
23059;BME280;30585;51.502;7.218;2022-12-18T06:16:09;92521.00;;;-147.26;89.07
23059;BME280;30585;51.502;7.218;2022-12-18T06:18:37;92533.22;;;-147.26;89.05
23059;BME280;30585;51.502;7.218;2022-12-18T06:21:05;92533.22;;;-147.26;89.19
23059;BME280;30585;51.502;7.218;2022-12-18T06:23:33;92531.19;;;-147.26;89.03
23059;BME280;30585;51.502;7.218;2022-12-18T06:26:03;92535.25;;;-147.26;89.06
23059;BME280;30585;51.502;7.218;2022-12-18T06:28:31;92547.47;;;-147.26;88.92
23059;BME280;30585;51.502;7.218;2022-12-18T06:30:59;92529.16;;;-147.26;89.23
23059;BME280;30585;51.502;7.218;2022-12-18T06:33:28;92535.25;;;-147.26;89.19
23059;BME280;30585;51.502;7.218;2022-12-18T06:35:59;92413.00;;;-147.26;89.18
23059;BME280;30585;51.502;7.218;2022-12-18T06:38:28;92494.50;;;-147.26;89.31
23059;BME280;30585;51.502;7.218;2022-12-18T06:40:55;92472.09;;;-147.26;89.12
23059;BME280;30585;51.502;7.218;2022-12-18T06:43:23;92531.19;;;-147.26;89.11
23059;BME280;30585;51.502;7.218;2022-12-18T06:45:50;92516.91;;;-147.26;88.96
23059;BME280;30585;51.502;7.218;2022-12-18T06:48:19;92514.88;;;-147.26;89.45
23059;BME280;30585;51.502;7.218;2022-12-18T06:50:48;92541.38;;;-147.26;89.36
23059;BME280;30585;51.502;7.218;2022-12-18T06:53:16;92516.91;;;-147.26;89.32
23059;BME280;30585;51.502;7.218;2022-12-18T06:55:43;92543.41;;;-147.26;89.77
23059;BME280;30585;51.502;7.218;2022-12-18T06:58:11;92525.06;;;-147.26;89.30
23059;BME280;30585;51.502;7.218;2022-12-18T07:00:39;92529.16;;;-147.26;89.34
23059;BME280;30585;51.502;7.218;2022-12-18T07:03:06;92512.84;;;-147.26;89.04
23059;BME280;30585;51.502;7.218;2022-12-18T07:05:39;92496.53;;;-147.26;89.10
23059;BME280;30585;51.502;7.218;2022-12-18T07:08:08;92510.81;;;-147.26;89.07
23059;BME280;30585;51.502;7.218;2022-12-18T07:10:41;92480.25;;;-147.26;89.32
23059;BME280;30585;51.502;7.218;2022-12-18T07:13:13;92573.97;;;-147.26;89.15
23059;BME280;30585;51.502;7.218;2022-12-18T07:15:41;92523.03;;;-147.26;89.32
23059;BME280;30585;51.502;7.218;2022-12-18T07:18:09;92510.81;;;-147.26;89.41
23059;BME280;30585;51.502;7.218;2022-12-18T07:20:37;92427.25;;;-147.26;89.37
23059;BME280;30585;51.502;7.218;2022-12-18T07:23:05;92500.63;;;-147.26;89.49
23059;BME280;30585;51.502;7.218;2022-12-18T07:25:34;92516.91;;;-147.26;89.24
23059;BME280;30585;51.502;7.218;2022-12-18T07:28:03;92506.72;;;-147.26;89.38
23059;BME280;30585;51.502;7.218;2022-12-18T07:30:30;92535.25;;;-147.26;88.93
23059;BME280;30585;51.502;7.218;2022-12-18T07:32:58;92525.06;;;-147.26;88.94
23059;BME280;30585;51.502;7.218;2022-12-18T07:35:26;92508.75;;;-147.26;89.17
23059;BME280;30585;51.502;7.218;2022-12-18T07:37:53;92535.25;;;-147.26;88.87
23059;BME280;30585;51.502;7.218;2022-12-18T07:40:21;92447.63;;;-147.26;88.69
23059;BME280;30585;51.502;7.218;2022-12-18T07:42:50;92496.53;;;-147.26;89.18
23059;BME280;30585;51.502;7.218;2022-12-18T07:45:18;92510.81;;;-147.26;89.44
23059;BME280;30585;51.502;7.218;2022-12-18T07:47:45;92498.56;;;-147.26;89.39
23059;BME280;30585;51.502;7.218;2022-12-18T07:50:13;92472.09;;;-147.26;89.49
23059;BME280;30585;51.502;7.218;2022-12-18T07:52:41;92516.91;;;-147.26;89.44
23059;BME280;30585;51.502;7.218;2022-12-18T07:55:08;92533.22;;;-147.26;89.44
23059;BME280;30585;51.502;7.218;2022-12-18T07:57:36;92527.09;;;-147.26;89.56
23059;BME280;30585;51.502;7.218;2022-12-18T08:00:18;92506.72;;;-147.26;89.68
23059;BME280;30585;51.502;7.218;2022-12-18T08:02:46;92496.53;;;-147.26;89.78
23059;BME280;30585;51.502;7.218;2022-12-18T08:05:14;92504.69;;;-147.26;89.97
23059;BME280;30585;51.502;7.218;2022-12-18T08:07:42;92514.88;;;-147.26;90.55
23059;BME280;30585;51.502;7.218;2022-12-18T08:10:10;92480.25;;;-147.26;90.51
23059;BME280;30585;51.502;7.218;2022-12-18T08:12:37;92492.47;;;-147.26;90.63
23059;BME280;30585;51.502;7.218;2022-12-18T08:15:06;92498.56;;;-147.26;90.43
23059;BME280;30585;51.502;7.218;2022-12-18T08:17:35;92531.19;;;-147.26;90.66
23059;BME280;30585;51.502;7.218;2022-12-18T08:20:03;92523.03;;;-147.26;90.66
23059;BME280;30585;51.502;7.218;2022-12-18T08:22:33;92478.19;;;-147.26;91.05
23059;BME280;30585;51.502;7.218;2022-12-18T08:25:01;92496.53;;;-147.26;91.05
23059;BME280;30585;51.502;7.218;2022-12-18T08:27:30;92498.56;;;-147.26;91.23
23059;BME280;30585;51.502;7.218;2022-12-18T08:29:58;92468.00;;;-147.26;91.11
23059;BME280;30585;51.502;7.218;2022-12-18T08:32:27;92504.69;;;-147.26;91.27
23059;BME280;30585;51.502;7.218;2022-12-18T08:34:56;92502.66;;;-147.26;91.50
23059;BME280;30585;51.502;7.218;2022-12-18T08:37:24;92480.25;;;-147.26;91.29
23059;BME280;30585;51.502;7.218;2022-12-18T08:39:52;92465.97;;;-147.26;91.96
23059;BME280;30585;51.502;7.218;2022-12-18T08:42:19;92482.28;;;-147.26;92.29
23059;BME280;30585;51.502;7.218;2022-12-18T08:45:05;92478.19;;;-147.26;92.38
23059;BME280;30585;51.502;7.218;2022-12-18T08:47:33;92453.75;;;-147.26;92.60
23059;BME280;30585;51.502;7.218;2022-12-18T08:50:03;92465.97;;;-147.26;92.56
23059;BME280;30585;51.502;7.218;2022-12-18T08:52:31;92482.28;;;-147.26;92.86
23059;BME280;30585;51.502;7.218;2022-12-18T08:54:59;92380.38;;;-147.26;92.93
23059;BME280;30585;51.502;7.218;2022-12-18T08:57:27;92500.63;;;-147.26;93.20
23059;BME280;30585;51.502;7.218;2022-12-18T08:59:54;92478.19;;;-147.26;93.26
23059;BME280;30585;51.502;7.218;2022-12-18T09:02:22;92461.91;;;-147.26;93.25
23059;BME280;30585;51.502;7.218;2022-12-18T09:04:50;92439.47;;;-147.26;93.37
23059;BME280;30585;51.502;7.218;2022-12-18T09:07:24;92408.91;;;-147.26;93.54
23059;BME280;30585;51.502;7.218;2022-12-18T09:09:52;92415.03;;;-147.26;93.43
23059;BME280;30585;51.502;7.218;2022-12-18T09:12:19;92465.97;;;-147.26;93.61
23059;BME280;30585;51.502;7.218;2022-12-18T09:14:47;92470.06;;;-147.26;93.48
23059;BME280;30585;51.502;7.218;2022-12-18T09:17:15;92429.28;;;-147.26;93.90
23059;BME280;30585;51.502;7.218;2022-12-18T09:19:42;92468.00;;;-147.26;94.35
23059;BME280;30585;51.502;7.218;2022-12-18T09:22:10;92470.06;;;-147.26;94.29
23059;BME280;30585;51.502;7.218;2022-12-18T09:24:39;92445.59;;;-147.26;94.42
23059;BME280;30585;51.502;7.218;2022-12-18T09:27:07;92394.66;;;-147.26;94.34
23059;BME280;30585;51.502;7.218;2022-12-18T09:29:35;92437.44;;;-147.26;94.40
23059;BME280;30585;51.502;7.218;2022-12-18T09:32:03;92437.44;;;-147.26;94.04
23059;BME280;30585;51.502;7.218;2022-12-18T09:34:31;92482.28;;;-147.26;93.80
23059;BME280;30585;51.502;7.218;2022-12-18T09:36:59;92455.78;;;-147.26;93.50
23059;BME280;30585;51.502;7.218;2022-12-18T09:39:26;92429.28;;;-147.26;93.24
23059;BME280;30585;51.502;7.218;2022-12-18T09:41:57;92343.72;;;-147.26;93.14
23059;BME280;30585;51.502;7.218;2022-12-18T09:44:28;92435.41;;;-147.26;93.17
23059;BME280;30585;51.502;7.218;2022-12-18T09:47:03;92406.88;;;-147.26;93.33
23059;BME280;30585;51.502;7.218;2022-12-18T09:49:39;92408.91;;;-147.26;93.45
23059;BME280;30585;51.502;7.218;2022-12-18T09:52:11;92402.81;;;-147.26;93.31
23059;BME280;30585;51.502;7.218;2022-12-18T09:54:47;92364.09;;;-147.26;93.40
23059;BME280;30585;51.502;7.218;2022-12-18T09:57:22;92390.59;;;-147.26;93.55
23059;BME280;30585;51.502;7.218;2022-12-18T09:59:54;92372.25;;;-147.26;93.23
23059;BME280;30585;51.502;7.218;2022-12-18T10:02:24;92384.47;;;-147.26;93.43
23059;BME280;30585;51.502;7.218;2022-12-18T10:05:09;92378.34;;;-147.26;93.48
23059;BME280;30585;51.502;7.218;2022-12-18T10:07:47;92335.56;;;-147.26;93.62
23059;BME280;30585;51.502;7.218;2022-12-18T10:10:26;92425.22;;;-147.26;93.35
23059;BME280;30585;51.502;7.218;2022-12-18T10:13:04;92396.69;;;-147.26;93.49
23059;BME280;30585;51.502;7.218;2022-12-18T10:15:40;92343.72;;;-147.26;93.56
23059;BME280;30585;51.502;7.218;2022-12-18T10:18:21;92380.38;;;-147.26;93.74
23059;BME280;30585;51.502;7.218;2022-12-18T10:20:55;92398.72;;;-147.26;93.74
23059;BME280;30585;51.502;7.218;2022-12-18T10:23:28;92329.44;;;-147.26;93.42
23059;BME280;30585;51.502;7.218;2022-12-18T10:26:02;92347.78;;;-147.26;91.63
23059;BME280;30585;51.502;7.218;2022-12-18T10:28:36;92337.59;;;-147.26;91.74
23059;BME280;30585;51.502;7.218;2022-12-18T10:31:05;92331.50;;;-147.26;90.29
23059;BME280;30585;51.502;7.218;2022-12-18T10:33:34;92307.03;;;-147.26;88.46
23059;BME280;30585;51.502;7.218;2022-12-18T10:36:02;92329.44;;;-147.26;87.62
23059;BME280;30585;51.502;7.218;2022-12-18T10:38:31;92351.88;;;-147.26;86.88
23059;BME280;30585;51.502;7.218;2022-12-18T10:41:01;92256.09;;;-147.26;85.80
23059;BME280;30585;51.502;7.218;2022-12-18T10:43:30;92211.28;;;-147.26;86.80
23059;BME280;30585;51.502;7.218;2022-12-18T10:46:11;92319.25;;;-147.26;86.46
23059;BME280;30585;51.502;7.218;2022-12-18T10:48:48;92302.97;;;-147.26;86.45
23059;BME280;30585;51.502;7.218;2022-12-18T10:51:23;92298.88;;;-147.26;84.77
23059;BME280;30585;51.502;7.218;2022-12-18T10:53:54;92302.97;;;-147.26;82.31
23059;BME280;30585;51.502;7.218;2022-12-18T10:56:25;92203.13;;;-147.26;79.89
23059;BME280;30585;51.502;7.218;2022-12-18T10:58:58;92233.69;;;-147.26;82.06
23059;BME280;30585;51.502;7.218;2022-12-18T11:01:31;92254.06;;;-147.26;80.78
23059;BME280;30585;51.502;7.218;2022-12-18T11:04:17;92266.28;;;-147.26;81.59
23059;BME280;30585;51.502;7.218;2022-12-18T11:06:56;92080.88;;;-147.26;81.96
23059;BME280;30585;51.502;7.218;2022-12-18T11:09:26;92319.25;;;-147.26;81.68
23059;BME280;30585;51.502;7.218;2022-12-18T11:11:55;92262.22;;;-147.26;82.37
23059;BME280;30585;51.502;7.218;2022-12-18T11:14:27;92243.88;;;-147.26;83.04
23059;BME280;30585;51.502;7.218;2022-12-18T11:16:58;92245.91;;;-147.26;84.06
23059;BME280;30585;51.502;7.218;2022-12-18T11:19:52;92376.31;;;-147.26;83.69
23059;BME280;30585;51.502;7.218;2022-12-18T11:22:23;92266.28;;;-147.26;83.29
23059;BME280;30585;51.502;7.218;2022-12-18T11:24:54;92227.56;;;-147.26;84.26
23059;BME280;30585;51.502;7.218;2022-12-18T11:27:47;92260.19;;;-147.26;82.93
23059;BME280;30585;51.502;7.218;2022-12-18T11:30:22;92221.47;;;-147.26;80.28
23059;BME280;30585;51.502;7.218;2022-12-18T11:32:54;92482.28;;;-147.26;78.90
23059;BME280;30585;51.502;7.218;2022-12-18T11:35:33;92268.31;;;-147.26;79.19
23059;BME280;30585;51.502;7.218;2022-12-18T11:38:06;92233.69;;;-147.26;79.58
23059;BME280;30585;51.502;7.218;2022-12-18T11:40:40;92199.06;;;-147.26;80.14
23059;BME280;30585;51.502;7.218;2022-12-18T11:43:11;92207.19;;;-147.26;80.54
23059;BME280;30585;51.502;7.218;2022-12-18T11:45:48;92245.91;;;-147.26;81.83
23059;BME280;30585;51.502;7.218;2022-12-18T11:48:22;92374.28;;;-147.26;83.38
23059;BME280;30585;51.502;7.218;2022-12-18T11:50:53;92233.69;;;-147.26;83.78
23059;BME280;30585;51.502;7.218;2022-12-18T11:53:21;92237.75;;;-147.26;83.94
23059;BME280;30585;51.502;7.218;2022-12-18T11:55:58;92213.31;;;-147.26;83.17
23059;BME280;30585;51.502;7.218;2022-12-18T11:58:41;92164.41;;;-147.26;75.58
23059;BME280;30585;51.502;7.218;2022-12-18T12:01:17;92213.31;;;-147.26;75.58
23059;BME280;30585;51.502;7.218;2022-12-18T12:04:08;92174.59;;;-147.26;72.59
23059;BME280;30585;51.502;7.218;2022-12-18T12:06:49;92194.97;;;-147.26;76.44
23059;BME280;30585;51.502;7.218;2022-12-18T12:09:35;92188.88;;;-147.26;77.14
23059;BME280;30585;51.502;7.218;2022-12-18T12:12:21;92201.09;;;-147.26;77.04
23059;BME280;30585;51.502;7.218;2022-12-18T12:15:02;92245.91;;;-147.26;78.29
23059;BME280;30585;51.502;7.218;2022-12-18T12:17:37;92197.00;;;-147.26;77.61
23059;BME280;30585;51.502;7.218;2022-12-18T12:20:15;92199.06;;;-147.26;75.55
23059;BME280;30585;51.502;7.218;2022-12-18T12:22:53;92219.44;;;-147.26;74.68
23059;BME280;30585;51.502;7.218;2022-12-18T12:25:31;92160.34;;;-147.26;75.94
23059;BME280;30585;51.502;7.218;2022-12-18T12:28:12;92237.75;;;-147.26;76.95
23059;BME280;30585;51.502;7.218;2022-12-18T12:30:52;92142.00;;;-147.26;77.70
23059;BME280;30585;51.502;7.218;2022-12-18T12:33:32;92231.66;;;-147.26;76.34
23059;BME280;30585;51.502;7.218;2022-12-18T12:36:10;92254.06;;;-147.26;76.05
23059;BME280;30585;51.502;7.218;2022-12-18T12:38:41;91964.75;;;-147.26;74.80
23059;BME280;30585;51.502;7.218;2022-12-18T12:41:19;92233.69;;;-147.26;76.17
23059;BME280;30585;51.502;7.218;2022-12-18T12:44:08;92243.88;;;-147.26;77.05
23059;BME280;30585;51.502;7.218;2022-12-18T12:46:39;92254.06;;;-147.26;74.58
23059;BME280;30585;51.502;7.218;2022-12-18T12:49:11;92245.91;;;-147.26;69.68
23059;BME280;30585;51.502;7.218;2022-12-18T12:51:45;92199.06;;;-147.26;65.70
23059;BME280;30585;51.502;7.218;2022-12-18T12:54:22;92127.72;;;-147.26;68.39
23059;BME280;30585;51.502;7.218;2022-12-18T12:56:54;92139.97;;;-147.26;68.32
23059;BME280;30585;51.502;7.218;2022-12-18T12:59:30;92097.19;;;-147.26;66.81